Time;durP1;ratioP1;P1;durP2;ratioP2;P2;SDS_P1;SDS_P2;PMS_P1;PMS_P2;Temp;Humidity;BMP_temperature;BMP_pressure;BME280_temperature;BME280_humidity;BME280_pressure;Samples;Min_cycle;Max_cycle;Signal;HPM_P1;HPM_P2
2023/04/26 00:00:42;;;;;;;8.98;3.88;;;7.00;99.90;;;;;;2091563;28;20036;-86
2023/04/26 00:01:43;;;;;;;8.75;4.20;;;7.00;99.90;;;;;;2073816;28;20504;-73
2023/04/26 00:02:43;;;;;;;9.00;4.43;;;7.00;99.90;;;;;;2073267;28;20295;-72
2023/04/26 00:03:44;;;;;;;10.75;4.45;;;7.00;99.90;;;;;;2090645;28;20020;-73
2023/04/26 00:04:46;;;;;;;10.90;4.90;;;7.00;99.90;;;;;;2084281;28;20047;-72
2023/04/26 00:05:47;;;;;;;8.07;4.20;;;6.90;99.90;;;;;;2075469;28;20489;-73
2023/04/26 00:06:48;;;;;;;8.10;4.30;;;6.90;99.90;;;;;;2065336;28;20100;-70
2023/04/26 00:07:49;;;;;;;9.70;4.10;;;6.90;99.90;;;;;;2072855;28;20115;-71
2023/04/26 00:08:50;;;;;;;7.20;4.50;;;6.90;99.90;;;;;;2074332;28;20071;-71
2023/04/26 00:09:53;;;;;;;8.95;4.35;;;6.90;99.90;;;;;;2083562;28;20028;-70
2023/04/26 00:10:54;;;;;;;8.32;3.90;;;6.90;99.90;;;;;;2081756;28;20361;-68
2023/04/26 00:11:54;;;;;;;7.53;4.68;;;6.90;99.90;;;;;;2081803;28;20059;-71
2023/04/26 00:12:55;;;;;;;9.35;4.60;;;6.90;99.90;;;;;;2090314;28;20048;-71
2023/04/26 00:13:58;;;;;;;9.20;4.68;;;6.90;99.90;;;;;;2092268;28;20020;-71
2023/04/26 00:14:58;;;;;;;9.02;4.88;;;6.90;99.90;;;;;;2085369;28;20044;-70
2023/04/26 00:15:59;;;;;;;8.77;4.90;;;6.80;99.90;;;;;;2082987;28;20044;-71
2023/04/26 00:17:02;;;;;;;9.25;4.50;;;6.80;99.90;;;;;;2084569;28;20025;-71
2023/04/26 00:18:02;;;;;;;8.45;4.38;;;6.80;99.90;;;;;;2083720;28;20025;-71
2023/04/26 00:19:03;;;;;;;13.00;4.72;;;6.80;99.90;;;;;;2081318;28;20035;-71
2023/04/26 00:20:07;;;;;;;8.45;4.80;;;6.80;99.90;;;;;;2081631;28;20399;-71
2023/04/26 00:21:08;;;;;;;8.68;5.07;;;6.80;99.90;;;;;;2090221;28;20376;-71
2023/04/26 00:22:09;;;;;;;8.88;4.38;;;6.80;99.90;;;;;;2092551;28;20039;-70
2023/04/26 00:23:10;;;;;;;8.35;4.70;;;6.80;99.90;;;;;;2090517;28;20466;-71
2023/04/26 00:24:11;;;;;;;9.02;4.60;;;6.80;99.90;;;;;;2081712;28;20029;-71
2023/04/26 00:25:12;;;;;;;9.50;4.93;;;6.80;99.90;;;;;;2080465;28;20099;-71
2023/04/26 00:26:13;;;;;;;8.57;4.70;;;6.70;99.90;;;;;;2086718;28;20048;-70
2023/04/26 00:27:13;;;;;;;9.23;4.80;;;6.70;99.90;;;;;;2083436;28;20029;-71
2023/04/26 00:28:14;;;;;;;10.57;4.97;;;6.70;99.90;;;;;;2074342;28;20037;-71
2023/04/26 00:29:15;;;;;;;7.63;4.68;;;6.70;99.90;;;;;;2081718;28;20143;-70
2023/04/26 00:30:15;;;;;;;7.43;4.30;;;6.70;99.90;;;;;;2081457;28;20546;-71
2023/04/26 00:31:16;;;;;;;10.40;5.07;;;6.70;99.90;;;;;;2075453;28;20048;-71
2023/04/26 00:32:17;;;;;;;9.65;5.03;;;6.70;99.90;;;;;;2081144;28;20029;-71
2023/04/26 00:33:17;;;;;;;10.10;4.80;;;6.70;99.90;;;;;;2081576;28;20032;-71
2023/04/26 00:34:18;;;;;;;8.80;4.53;;;6.60;99.90;;;;;;2080209;28;20048;-71
2023/04/26 00:35:19;;;;;;;6.68;4.82;;;6.60;99.90;;;;;;2089143;28;20032;-70
2023/04/26 00:36:19;;;;;;;8.98;4.53;;;6.60;99.90;;;;;;2089724;28;20626;-71
2023/04/26 00:37:20;;;;;;;9.77;4.63;;;6.60;99.90;;;;;;2081474;28;20025;-71
2023/04/26 00:38:21;;;;;;;8.10;4.40;;;6.60;99.90;;;;;;2081634;28;20369;-72
2023/04/26 00:39:21;;;;;;;6.53;4.35;;;6.60;99.90;;;;;;2092532;28;20026;-70
2023/04/26 00:40:22;;;;;;;10.52;4.70;;;6.60;99.90;;;;;;2090320;28;20174;-71
2023/04/26 00:41:23;;;;;;;8.32;4.63;;;6.60;99.90;;;;;;2081131;28;20059;-70
2023/04/26 00:42:25;;;;;;;10.38;4.45;;;6.60;99.90;;;;;;2081367;28;20033;-70
2023/04/26 00:43:26;;;;;;;9.15;4.40;;;6.50;99.90;;;;;;2081760;28;20033;-70
2023/04/26 00:44:26;;;;;;;8.65;4.82;;;6.50;99.90;;;;;;2081491;28;20029;-71
2023/04/26 00:45:27;;;;;;;7.82;4.72;;;6.50;99.90;;;;;;2083218;28;20029;-70
2023/04/26 00:46:29;;;;;;;9.13;4.80;;;6.50;99.90;;;;;;2094505;28;20132;-69
2023/04/26 00:47:30;;;;;;;7.72;4.72;;;6.50;99.90;;;;;;2090058;28;20036;-71
2023/04/26 00:48:32;;;;;;;6.55;4.20;;;6.50;99.90;;;;;;2090236;28;20521;-71
2023/04/26 00:49:33;;;;;;;10.45;4.82;;;6.50;99.90;;;;;;2092429;28;20028;-70
2023/04/26 00:50:34;;;;;;;10.40;4.85;;;6.40;99.90;;;;;;2081384;28;20397;-71
2023/04/26 00:51:35;;;;;;;8.57;4.75;;;6.40;99.90;;;;;;2081153;28;20021;-71
2023/04/26 00:52:37;;;;;;;8.55;4.50;;;6.40;99.90;;;;;;2086996;28;20483;-71
2023/04/26 00:53:38;;;;;;;8.13;4.45;;;6.30;99.90;;;;;;2090046;28;20086;-70
2023/04/26 00:54:39;;;;;;;9.98;5.03;;;6.30;99.90;;;;;;2090329;28;20021;-70
2023/04/26 00:55:40;;;;;;;9.60;4.90;;;6.30;99.90;;;;;;2081847;28;20025;-70
2023/04/26 00:56:42;;;;;;;8.95;4.78;;;6.30;99.90;;;;;;2083473;28;20099;-70
2023/04/26 00:57:44;;;;;;;9.77;4.82;;;6.30;99.90;;;;;;2090246;28;20499;-71
2023/04/26 00:58:45;;;;;;;8.32;5.05;;;6.20;99.90;;;;;;2081266;28;20044;-71
2023/04/26 00:59:45;;;;;;;8.98;4.78;;;6.20;99.90;;;;;;2072799;28;20045;-71
2023/04/26 01:00:49;;;;;;;8.88;4.70;;;6.20;99.90;;;;;;2075335;28;20075;-70
2023/04/26 01:01:49;;;;;;;8.05;5.07;;;6.20;99.90;;;;;;2089696;28;20090;-70
2023/04/26 01:02:50;;;;;;;10.48;4.50;;;6.10;99.90;;;;;;2089000;28;20404;-70
2023/04/26 01:03:51;;;;;;;9.07;4.50;;;6.10;99.90;;;;;;2086453;28;20074;-71
2023/04/26 01:04:51;;;;;;;10.23;4.70;;;6.10;99.90;;;;;;2072960;28;20588;-70
2023/04/26 01:05:52;;;;;;;9.75;5.03;;;6.10;99.90;;;;;;2067089;28;20593;-70
2023/04/26 01:06:53;;;;;;;11.30;5.38;;;6.10;99.90;;;;;;2081826;28;20475;-71
2023/04/26 01:07:54;;;;;;;8.90;4.80;;;6.10;99.90;;;;;;2090258;28;20033;-70
2023/04/26 01:08:57;;;;;;;8.50;4.85;;;6.10;99.90;;;;;;2068407;28;20135;-71
2023/04/26 01:09:58;;;;;;;8.75;5.00;;;6.00;99.90;;;;;;2075177;28;20033;-71
2023/04/26 01:10:59;;;;;;;9.88;5.07;;;6.00;99.90;;;;;;2082932;28;20043;-71
2023/04/26 01:12:00;;;;;;;8.35;4.57;;;6.00;99.90;;;;;;2075935;28;20056;-70
2023/04/26 01:13:02;;;;;;;10.50;4.93;;;6.00;99.90;;;;;;2080934;28;20083;-70
2023/04/26 01:14:04;;;;;;;8.75;5.07;;;6.00;99.90;;;;;;2079752;28;20033;-70
2023/04/26 01:15:05;;;;;;;8.10;4.80;;;5.90;99.90;;;;;;2076661;28;20032;-70
2023/04/26 01:16:07;;;;;;;10.00;5.35;;;5.90;99.90;;;;;;2083275;28;20052;-69
2023/04/26 01:17:08;;;;;;;11.85;4.82;;;5.90;99.90;;;;;;2084703;28;20032;-71
2023/04/26 01:18:08;;;;;;;8.90;4.93;;;5.90;99.90;;;;;;2079417;28;20035;-71
2023/04/26 01:19:15;;;;;;;10.20;4.85;;;5.90;99.90;;;;;;2073251;28;20083;-70
2023/04/26 01:20:15;;;;;;;11.32;5.25;;;5.90;99.90;;;;;;2078070;28;20033;-71
2023/04/26 01:21:21;;;;;;;10.68;5.13;;;5.90;99.90;;;;;;2083539;28;20057;-71
2023/04/26 01:22:21;;;;;;;9.20;4.78;;;5.90;99.90;;;;;;2083828;28;20852;-71
2023/04/26 01:23:23;;;;;;;12.18;5.25;;;5.80;99.90;;;;;;2073339;28;20103;-71
2023/04/26 01:24:24;;;;;;;8.80;4.70;;;5.80;99.90;;;;;;2077131;28;20246;-71
2023/04/26 01:25:25;;;;;;;9.98;5.20;;;5.80;99.90;;;;;;2089699;28;20293;-71
2023/04/26 01:26:26;;;;;;;9.32;4.75;;;5.80;99.90;;;;;;2090102;28;20059;-71
2023/04/26 01:27:27;;;;;;;8.13;4.95;;;5.80;99.90;;;;;;2083063;28;20143;-71
2023/04/26 01:28:27;;;;;;;9.27;5.15;;;5.80;99.90;;;;;;2077238;28;20385;-71
2023/04/26 01:29:28;;;;;;;9.68;4.88;;;5.80;99.90;;;;;;2081220;28;20036;-71
2023/04/26 01:30:30;;;;;;;10.88;5.20;;;5.80;99.90;;;;;;2081068;28;20029;-71
2023/04/26 01:31:31;;;;;;;9.27;5.40;;;5.90;99.90;;;;;;2091870;28;20029;-71
2023/04/26 01:32:32;;;;;;;10.05;4.80;;;5.80;99.90;;;;;;2090333;28;20167;-71
2023/04/26 01:33:33;;;;;;;9.95;5.07;;;5.80;99.90;;;;;;2074562;28;20022;-71
2023/04/26 01:34:33;;;;;;;8.63;4.55;;;5.80;99.90;;;;;;2072973;28;20049;-71
2023/04/26 01:35:34;;;;;;;11.25;5.25;;;5.80;99.90;;;;;;2081453;28;20033;-71
2023/04/26 01:36:36;;;;;;;9.23;4.60;;;5.80;99.90;;;;;;2083262;28;20032;-71
2023/04/26 01:37:36;;;;;;;11.13;4.80;;;5.80;99.90;;;;;;2073059;28;20115;-71
2023/04/26 01:38:37;;;;;;;10.35;5.00;;;5.80;99.90;;;;;;2080925;28;20036;-70
2023/04/26 01:39:38;;;;;;;9.55;5.00;;;5.80;99.90;;;;;;2081004;28;20029;-70
2023/04/26 01:40:38;;;;;;;10.80;5.60;;;5.80;99.90;;;;;;2087109;28;20032;-71
2023/04/26 01:41:40;;;;;;;8.63;4.70;;;5.80;99.90;;;;;;2081909;28;20025;-71
2023/04/26 01:42:40;;;;;;;10.82;5.15;;;5.80;99.90;;;;;;2080998;28;20025;-71
2023/04/26 01:43:41;;;;;;;10.27;4.97;;;5.80;99.90;;;;;;2085867;28;20016;-70
2023/04/26 01:44:41;;;;;;;8.80;4.80;;;5.80;99.90;;;;;;2081135;28;20488;-69
2023/04/26 01:45:46;;;;;;;9.35;4.95;;;5.70;99.90;;;;;;2073109;28;20124;-70
2023/04/26 01:47:03;;;;;;;9.52;4.90;;;5.70;99.90;;;;;;2083948;28;20033;-70
2023/04/26 01:48:04;;;;;;;10.15;4.95;;;5.70;99.90;;;;;;2081254;28;20446;-70
2023/04/26 01:49:06;;;;;;;9.43;4.70;;;5.70;99.90;;;;;;2081580;28;20033;-70
2023/04/26 01:50:07;;;;;;;11.55;4.90;;;5.70;99.90;;;;;;2093718;28;20093;-70
2023/04/26 01:51:08;;;;;;;11.85;5.28;;;5.70;99.90;;;;;;2086881;28;20119;-71
2023/04/26 01:52:08;;;;;;;8.95;4.93;;;5.70;99.90;;;;;;2091620;28;20491;-70
2023/04/26 01:53:09;;;;;;;7.43;4.75;;;5.70;99.90;;;;;;2081919;28;20431;-69
2023/04/26 01:54:10;;;;;;;9.18;4.70;;;5.70;99.90;;;;;;2084580;28;20033;-70
2023/04/26 01:55:10;;;;;;;9.98;4.82;;;5.70;99.90;;;;;;2074563;28;20092;-70
2023/04/26 01:56:11;;;;;;;10.05;4.60;;;5.70;99.90;;;;;;2074220;28;20120;-70
2023/04/26 01:57:11;;;;;;;9.32;4.90;;;5.70;99.90;;;;;;2082602;28;20053;-70
2023/04/26 01:58:12;;;;;;;8.40;5.03;;;5.70;99.90;;;;;;2082637;28;20051;-70
2023/04/26 01:59:13;;;;;;;9.13;4.97;;;5.70;99.90;;;;;;2076307;28;20029;-70
2023/04/26 02:00:13;;;;;;;11.10;4.88;;;5.80;99.90;;;;;;2074564;28;20112;-70
2023/04/26 02:01:14;;;;;;;11.90;4.82;;;5.70;99.90;;;;;;2090737;28;20253;-70
2023/04/26 02:02:17;;;;;;;10.35;4.93;;;5.70;99.90;;;;;;2074454;28;20035;-70
2023/04/26 02:03:17;;;;;;;10.10;5.38;;;5.70;99.90;;;;;;2076730;28;20060;-70
2023/04/26 02:04:18;;;;;;;9.75;5.03;;;5.70;99.90;;;;;;2074300;28;20037;-70
2023/04/26 02:05:19;;;;;;;10.40;4.85;;;5.70;99.90;;;;;;2074624;28;20029;-71
2023/04/26 02:06:20;;;;;;;13.27;5.43;;;5.70;99.90;;;;;;2074129;28;20041;-71
2023/04/26 02:07:21;;;;;;;10.63;4.78;;;5.80;99.90;;;;;;2071885;28;20105;-71
2023/04/26 02:08:21;;;;;;;13.60;5.32;;;5.80;99.90;;;;;;2082380;28;20025;-70
2023/04/26 02:09:22;;;;;;;10.48;5.03;;;5.80;99.90;;;;;;2089592;28;20496;-71
2023/04/26 02:10:22;;;;;;;11.77;5.05;;;5.70;99.90;;;;;;2084236;28;20504;-70
2023/04/26 02:11:23;;;;;;;9.50;5.13;;;5.70;99.90;;;;;;2074012;28;20060;-70
2023/04/26 02:12:26;;;;;;;10.27;4.72;;;5.80;99.90;;;;;;2082740;28;20364;-70
2023/04/26 02:13:27;;;;;;;10.43;5.07;;;5.70;99.90;;;;;;2091464;28;20115;-70
2023/04/26 02:14:28;;;;;;;10.82;5.60;;;5.80;99.90;;;;;;2093525;28;20025;-71
2023/04/26 02:15:28;;;;;;;9.38;5.05;;;5.70;99.90;;;;;;2091504;28;20435;-70
2023/04/26 02:16:31;;;;;;;12.02;5.43;;;5.80;99.90;;;;;;2096005;28;20020;-71
2023/04/26 02:17:32;;;;;;;12.00;4.82;;;5.80;99.90;;;;;;2093439;28;20103;-70
2023/04/26 02:18:33;;;;;;;9.23;5.13;;;5.70;99.90;;;;;;2082534;28;20454;-70
2023/04/26 02:19:34;;;;;;;8.50;5.22;;;5.80;99.90;;;;;;2084361;28;20029;-71
2023/04/26 02:20:36;;;;;;;8.52;5.05;;;5.80;99.90;;;;;;2074305;28;20038;-70
2023/04/26 02:22:05;;;;;;;9.18;5.03;;;5.80;99.90;;;;;;2074367;28;20495;-71
2023/04/26 02:23:06;;;;;;;10.50;4.97;;;5.80;99.90;;;;;;2084784;28;20131;-70
2023/04/26 02:24:07;;;;;;;8.93;5.18;;;5.80;99.90;;;;;;2072229;28;20074;-71
2023/04/26 02:25:07;;;;;;;9.57;5.38;;;5.80;99.90;;;;;;2064703;28;20415;-71
2023/04/26 02:26:08;;;;;;;8.73;5.20;;;5.80;99.90;;;;;;2085097;28;20105;-71
2023/04/26 02:27:09;;;;;;;13.63;5.60;;;5.80;99.90;;;;;;2091030;28;20032;-70
2023/04/26 02:28:10;;;;;;;10.85;5.47;;;5.80;99.90;;;;;;2091165;28;20119;-70
2023/04/26 02:29:10;;;;;;;11.25;5.45;;;5.70;99.90;;;;;;2093446;28;20332;-71
2023/04/26 02:30:11;;;;;;;10.27;5.85;;;5.70;99.90;;;;;;2091188;28;20256;-70
2023/04/26 02:31:12;;;;;;;9.63;5.22;;;5.70;99.90;;;;;;2091444;28;20373;-70
2023/04/26 02:32:14;;;;;;;11.25;5.75;;;5.70;99.90;;;;;;2083464;28;20809;-70
2023/04/26 02:33:14;;;;;;;9.10;5.38;;;5.70;99.90;;;;;;2074099;28;20037;-70
2023/04/26 02:34:15;;;;;;;9.50;5.20;;;5.70;99.90;;;;;;2075910;28;20036;-70
2023/04/26 02:35:16;;;;;;;8.98;4.78;;;5.70;99.90;;;;;;2082370;28;20259;-70
2023/04/26 02:36:16;;;;;;;11.70;5.32;;;5.70;99.90;;;;;;2086813;28;20033;-70
2023/04/26 02:37:17;;;;;;;10.95;5.30;;;5.70;99.90;;;;;;2073972;28;20547;-70
2023/04/26 02:38:18;;;;;;;11.82;5.78;;;5.70;99.90;;;;;;2067796;28;20260;-70
2023/04/26 02:39:19;;;;;;;10.45;5.35;;;5.70;99.90;;;;;;2074214;28;20026;-70
2023/04/26 02:40:20;;;;;;;10.93;5.05;;;5.70;99.90;;;;;;2090636;28;20374;-70
2023/04/26 02:41:22;;;;;;;9.68;5.55;;;5.70;99.90;;;;;;2082605;28;20436;-70
2023/04/26 02:42:24;;;;;;;12.32;5.40;;;5.70;99.90;;;;;;2082551;28;20020;-70
2023/04/26 02:43:25;;;;;;;11.55;5.03;;;5.70;99.90;;;;;;2084369;28;20456;-70
2023/04/26 02:44:29;;;;;;;9.90;5.07;;;5.70;99.90;;;;;;2073971;28;20032;-70
2023/04/26 02:45:30;;;;;;;10.30;4.97;;;5.70;99.90;;;;;;2081702;28;20025;-70
2023/04/26 02:46:31;;;;;;;9.50;5.53;;;5.70;99.90;;;;;;2082467;28;20475;-70
2023/04/26 02:47:32;;;;;;;10.07;5.35;;;5.70;99.90;;;;;;2064322;28;20030;-70
2023/04/26 02:48:32;;;;;;;10.35;5.38;;;5.70;99.90;;;;;;2075959;28;20058;-70
2023/04/26 02:49:33;;;;;;;9.00;5.15;;;5.70;99.90;;;;;;2073932;28;20576;-71
2023/04/26 02:50:34;;;;;;;9.70;5.13;;;5.70;99.90;;;;;;2065622;28;20409;-71
2023/04/26 02:51:35;;;;;;;11.00;5.50;;;5.70;99.90;;;;;;2069399;28;20030;-71
2023/04/26 02:52:36;;;;;;;10.68;5.65;;;5.70;99.90;;;;;;2077623;28;20029;-71
2023/04/26 02:53:38;;;;;;;10.73;5.53;;;5.70;99.90;;;;;;2089246;28;20024;-71
2023/04/26 02:54:39;;;;;;;10.43;5.43;;;5.70;99.90;;;;;;2084231;28;20392;-71
2023/04/26 02:55:39;;;;;;;13.02;5.80;;;5.60;99.90;;;;;;2074089;28;20041;-71
2023/04/26 02:56:40;;;;;;;10.75;5.45;;;5.60;99.90;;;;;;2081732;28;20032;-71
2023/04/26 02:57:40;;;;;;;9.35;5.40;;;5.60;99.90;;;;;;2084106;28;20503;-70
2023/04/26 02:58:41;;;;;;;10.77;5.60;;;5.50;99.90;;;;;;2082138;28;20123;-71
2023/04/26 02:59:43;;;;;;;10.15;5.28;;;5.50;99.90;;;;;;2077327;28;20425;-71
2023/04/26 03:00:46;;;;;;;9.07;5.47;;;5.50;99.90;;;;;;2082149;28;20025;-71
2023/04/26 03:01:47;;;;;;;13.07;5.20;;;5.50;99.90;;;;;;2082239;28;20032;-70
2023/04/26 03:02:47;;;;;;;9.32;5.10;;;5.50;99.90;;;;;;2082608;28;20025;-70
2023/04/26 03:03:48;;;;;;;10.77;5.60;;;5.50;99.90;;;;;;2081901;28;20025;-71
2023/04/26 03:04:49;;;;;;;9.00;5.22;;;5.50;99.90;;;;;;2091232;28;20024;-71
2023/04/26 03:05:49;;;;;;;10.18;5.50;;;5.50;99.90;;;;;;2090886;28;20143;-71
2023/04/26 03:06:50;;;;;;;10.18;5.40;;;5.50;99.90;;;;;;2084175;28;20056;-71
2023/04/26 03:07:51;;;;;;;14.02;6.18;;;5.50;99.90;;;;;;2083901;28;20108;-71
2023/04/26 03:08:52;;;;;;;10.82;5.50;;;5.50;99.90;;;;;;2077180;28;20079;-71
2023/04/26 03:09:52;;;;;;;13.10;5.72;;;5.50;99.90;;;;;;2073325;28;20030;-71
2023/04/26 03:10:53;;;;;;;11.57;5.63;;;5.50;99.90;;;;;;2068554;28;20037;-70
2023/04/26 03:11:53;;;;;;;10.27;5.38;;;5.50;99.90;;;;;;2075730;28;20033;-71
2023/04/26 03:12:55;;;;;;;9.45;5.55;;;5.50;99.90;;;;;;2074045;28;20029;-71
2023/04/26 03:13:55;;;;;;;9.65;5.20;;;5.50;99.90;;;;;;2082418;28;20033;-71
2023/04/26 03:14:56;;;;;;;12.18;5.40;;;5.50;99.90;;;;;;2082228;28;20147;-70
2023/04/26 03:15:59;;;;;;;10.25;5.35;;;5.50;99.90;;;;;;2077299;28;20128;-70
2023/04/26 03:17:00;;;;;;;10.60;5.40;;;5.40;99.90;;;;;;2075699;28;20041;-70
2023/04/26 03:18:01;;;;;;;11.57;5.80;;;5.50;99.90;;;;;;2076791;28;20029;-69
2023/04/26 03:19:01;;;;;;;11.63;5.85;;;5.40;99.90;;;;;;2073709;28;20056;-72
2023/04/26 03:20:05;;;;;;;9.70;5.45;;;5.40;99.90;;;;;;2072718;28;20116;-70
2023/04/26 03:21:06;;;;;;;8.73;5.47;;;5.40;99.90;;;;;;2070842;28;20463;-71
2023/04/26 03:22:07;;;;;;;12.20;6.20;;;5.40;99.90;;;;;;2071699;28;20033;-71
2023/04/26 03:23:08;;;;;;;13.20;5.85;;;5.40;99.90;;;;;;2073699;28;20033;-70
2023/04/26 03:24:08;;;;;;;12.23;5.65;;;5.30;99.90;;;;;;2073613;28;20033;-70
2023/04/26 03:25:09;;;;;;;11.52;5.47;;;5.30;99.90;;;;;;2086155;28;20637;-70
2023/04/26 03:26:10;;;;;;;12.18;5.57;;;5.30;99.90;;;;;;2087915;28;20211;-70
2023/04/26 03:27:11;;;;;;;11.45;5.60;;;5.30;99.90;;;;;;2084067;28;20214;-70
2023/04/26 03:28:12;;;;;;;12.88;5.95;;;5.30;99.90;;;;;;2081691;28;20219;-69
2023/04/26 03:29:13;;;;;;;15.05;5.95;;;5.30;99.90;;;;;;2081937;28;20437;-70
2023/04/26 03:30:14;;;;;;;14.00;5.63;;;5.30;99.90;;;;;;2069136;28;20022;-70
2023/04/26 03:31:17;;;;;;;17.23;5.60;;;5.20;99.90;;;;;;2075417;28;20022;-70
2023/04/26 03:32:17;;;;;;;10.63;5.57;;;5.20;99.90;;;;;;2074044;28;20029;-70
2023/04/26 03:33:18;;;;;;;11.77;5.47;;;5.20;99.90;;;;;;2073821;28;20061;-70
2023/04/26 03:34:18;;;;;;;11.32;5.32;;;5.20;99.90;;;;;;2073719;28;20049;-70
2023/04/26 03:35:19;;;;;;;14.38;6.03;;;5.20;99.90;;;;;;2083856;28;20481;-70
2023/04/26 03:36:20;;;;;;;10.93;5.32;;;5.20;99.90;;;;;;2074374;28;20033;-70
2023/04/26 03:37:21;;;;;;;11.50;5.80;;;5.20;99.90;;;;;;2074662;28;20036;-70
2023/04/26 03:38:28;;;;;;;12.93;5.57;;;5.10;99.90;;;;;;2073884;28;20444;-70
2023/04/26 03:39:29;;;;;;;13.52;5.72;;;5.10;99.90;;;;;;2074734;28;20051;-70
2023/04/26 03:40:29;;;;;;;12.10;5.72;;;5.10;99.90;;;;;;2092458;28;20478;-70
2023/04/26 03:41:32;;;;;;;12.43;5.65;;;5.10;99.90;;;;;;2090189;28;20530;-71
2023/04/26 03:42:37;;;;;;;13.20;5.88;;;5.00;99.90;;;;;;2081690;28;20064;-71
2023/04/26 03:43:37;;;;;;;9.80;5.57;;;5.00;99.90;;;;;;2073572;28;20088;-70
2023/04/26 03:44:38;;;;;;;13.98;5.45;;;5.00;99.90;;;;;;2073599;28;20029;-70
2023/04/26 03:45:38;;;;;;;12.63;5.80;;;5.00;99.90;;;;;;2075339;28;20033;-70
2023/04/26 03:46:42;;;;;;;10.75;5.68;;;5.00;99.90;;;;;;2083393;28;20036;-70
2023/04/26 03:47:42;;;;;;;12.63;5.75;;;5.00;99.90;;;;;;2081858;28;20033;-70
2023/04/26 03:48:43;;;;;;;11.88;5.60;;;5.00;99.90;;;;;;2081428;28;20107;-70
2023/04/26 03:49:44;;;;;;;10.32;5.63;;;5.00;99.90;;;;;;2082052;28;20028;-70
2023/04/26 03:50:45;;;;;;;12.10;5.78;;;5.00;99.90;;;;;;2083939;28;20021;-70
2023/04/26 03:51:46;;;;;;;13.18;5.72;;;5.00;99.90;;;;;;2070329;28;20927;-70
2023/04/26 03:52:49;;;;;;;14.32;5.68;;;5.00;99.90;;;;;;2065889;28;20026;-70
2023/04/26 03:53:50;;;;;;;10.90;5.78;;;5.00;99.90;;;;;;2073583;28;20021;-70
2023/04/26 03:54:51;;;;;;;11.93;5.65;;;4.90;99.90;;;;;;2075666;28;20026;-70
2023/04/26 03:55:51;;;;;;;9.90;5.50;;;4.90;99.90;;;;;;2073413;28;20057;-69
2023/04/26 03:56:52;;;;;;;9.07;5.68;;;4.90;99.90;;;;;;2081200;28;20064;-69
2023/04/26 03:57:53;;;;;;;12.52;5.53;;;4.90;99.90;;;;;;2073385;28;20022;-69
2023/04/26 03:58:54;;;;;;;11.15;5.72;;;4.90;99.90;;;;;;2075353;28;20581;-70
2023/04/26 03:59:55;;;;;;;11.63;5.43;;;4.90;99.90;;;;;;2073555;28;20488;-69
2023/04/26 04:00:57;;;;;;;12.02;5.43;;;4.90;99.90;;;;;;2073472;28;20037;-69
2023/04/26 04:01:58;;;;;;;12.48;5.47;;;4.90;99.90;;;;;;2072509;28;20041;-70
2023/04/26 04:02:58;;;;;;;12.55;5.65;;;4.90;99.90;;;;;;2073524;28;20617;-70
2023/04/26 04:04:00;;;;;;;11.40;5.57;;;4.90;99.90;;;;;;2086490;28;20063;-69
2023/04/26 04:05:01;;;;;;;11.15;5.60;;;4.90;99.90;;;;;;2073725;28;20100;-69
2023/04/26 04:06:01;;;;;;;12.93;5.57;;;4.90;99.90;;;;;;2073247;28;20045;-70
2023/04/26 04:07:03;;;;;;;8.57;5.07;;;4.90;99.90;;;;;;2073242;28;20064;-70
2023/04/26 04:08:03;;;;;;;8.93;4.93;;;4.90;99.90;;;;;;2081724;28;20413;-69
2023/04/26 04:09:04;;;;;;;14.05;5.40;;;4.90;99.90;;;;;;2090573;28;20133;-71
2023/04/26 04:10:06;;;;;;;11.70;5.57;;;4.90;99.90;;;;;;2102852;28;20036;-69
2023/04/26 04:11:09;;;;;;;9.90;5.25;;;4.90;99.90;;;;;;2081443;28;20052;-70
2023/04/26 04:12:11;;;;;;;12.48;5.80;;;4.90;99.90;;;;;;2081619;28;20021;-70
2023/04/26 04:13:12;;;;;;;14.07;5.50;;;4.90;99.90;;;;;;2073274;28;20079;-71
2023/04/26 04:14:13;;;;;;;13.10;5.40;;;4.90;99.90;;;;;;2067304;28;20444;-70
2023/04/26 04:15:14;;;;;;;13.52;5.60;;;4.90;99.90;;;;;;2075445;28;20037;-70
2023/04/26 04:16:19;;;;;;;6.85;4.93;;;5.00;99.90;;;;;;2074741;28;20325;-71
2023/04/26 04:17:19;;;;;;;10.20;5.40;;;5.00;99.90;;;;;;2074294;28;20045;-81
2023/04/26 04:18:20;;;;;;;13.68;5.38;;;5.00;99.90;;;;;;2082279;28;20025;-83
2023/04/26 04:19:21;;;;;;;8.77;5.18;;;5.00;99.90;;;;;;2092788;28;20507;-82
2023/04/26 04:20:21;;;;;;;9.52;5.22;;;5.00;99.90;;;;;;2082381;28;20519;-81
2023/04/26 04:21:22;;;;;;;11.18;5.07;;;5.00;99.90;;;;;;2074380;28;20036;-82
2023/04/26 04:22:23;;;;;;;11.40;5.22;;;5.00;99.90;;;;;;2065732;28;20057;-82
2023/04/26 04:23:24;;;;;;;11.73;4.80;;;5.00;99.90;;;;;;2078093;28;20072;-83
2023/04/26 04:24:25;;;;;;;8.57;5.18;;;5.10;99.90;;;;;;2084210;28;20408;-82
2023/04/26 04:25:26;;;;;;;12.20;5.03;;;5.10;99.90;;;;;;2084362;28;20032;-82
2023/04/26 04:26:27;;;;;;;13.63;5.30;;;5.10;99.90;;;;;;2082223;28;20136;-80
2023/04/26 04:27:28;;;;;;;11.45;5.30;;;5.10;99.90;;;;;;2082599;28;20024;-83
2023/04/26 04:28:29;;;;;;;14.82;6.60;;;5.10;99.90;;;;;;2083040;28;20028;-83
2023/04/26 04:29:31;;;;;;;12.90;5.10;;;5.10;99.90;;;;;;2089075;28;20487;-81
2023/04/26 04:30:33;;;;;;;12.20;5.07;;;5.10;99.90;;;;;;2081772;28;20032;-82
2023/04/26 04:31:35;;;;;;;9.82;4.80;;;5.10;99.90;;;;;;2079234;28;20025;-83
2023/04/26 04:32:36;;;;;;;10.88;4.90;;;5.10;99.90;;;;;;2081725;28;20032;-81
2023/04/26 04:33:37;;;;;;;10.45;4.97;;;5.10;99.90;;;;;;2073460;28;20042;-78
2023/04/26 04:34:39;;;;;;;12.60;5.10;;;5.10;99.90;;;;;;2075561;28;20026;-78
2023/04/26 04:35:41;;;;;;;8.23;4.88;;;5.20;99.90;;;;;;2073701;28;20140;-76
2023/04/26 04:36:42;;;;;;;12.18;4.82;;;5.20;99.90;;;;;;2065240;28;20481;-78
2023/04/26 04:37:44;;;;;;;9.68;4.60;;;5.20;99.90;;;;;;2073352;28;20555;-78
2023/04/26 04:38:45;;;;;;;10.02;4.63;;;5.20;99.90;;;;;;2075387;28;20087;-78
2023/04/26 04:39:48;;;;;;;11.18;4.70;;;5.30;99.90;;;;;;2090334;28;20059;-78
2023/04/26 04:40:49;;;;;;;11.45;4.93;;;5.30;99.90;;;;;;2093997;28;20016;-78
2023/04/26 04:41:50;;;;;;;13.30;4.60;;;5.40;99.90;;;;;;2074221;28;20055;-78
2023/04/26 04:42:53;;;;;;;10.55;4.57;;;5.40;99.90;;;;;;2070912;28;20026;-79
2023/04/26 04:43:55;;;;;;;9.30;4.57;;;5.60;99.90;;;;;;2087999;28;20032;-80
2023/04/26 04:44:58;;;;;;;13.02;5.15;;;5.70;99.90;;;;;;2093327;28;20028;-80
2023/04/26 04:45:59;;;;;;;12.15;5.00;;;5.70;99.90;;;;;;2082850;28;20063;-80
2023/04/26 04:46:59;;;;;;;11.52;5.90;;;5.80;99.90;;;;;;2073624;28;20044;-80
2023/04/26 04:48:00;;;;;;;11.88;5.00;;;5.80;99.90;;;;;;2073315;28;20029;-80
2023/04/26 04:49:00;;;;;;;15.52;5.22;;;5.90;99.90;;;;;;2065008;28;20635;-79
2023/04/26 04:50:01;;;;;;;14.00;4.70;;;6.00;99.90;;;;;;2064980;28;20030;-81
2023/04/26 04:51:02;;;;;;;16.67;4.90;;;6.10;99.90;;;;;;2075065;28;20034;-79
2023/04/26 04:52:05;;;;;;;12.80;5.28;;;6.10;99.90;;;;;;2068465;28;20026;-78
2023/04/26 04:53:08;;;;;;;11.20;4.47;;;6.10;99.90;;;;;;2073312;28;20041;-78
2023/04/26 04:54:14;;;;;;;12.77;5.20;;;6.20;99.90;;;;;;2069717;28;20121;-82
2023/04/26 04:55:15;;;;;;;12.00;5.10;;;6.20;99.90;;;;;;2062780;28;20489;-77
2023/04/26 04:56:18;;;;;;;13.10;4.85;;;6.20;99.90;;;;;;2079875;28;20081;-78
2023/04/26 04:57:19;;;;;;;11.52;5.10;;;6.20;99.90;;;;;;2070541;28;20098;-78
2023/04/26 04:58:21;;;;;;;12.07;4.88;;;6.30;99.90;;;;;;2073421;28;20116;-77
2023/04/26 04:59:23;;;;;;;9.10;4.60;;;6.50;99.90;;;;;;2072591;28;20029;-78
2023/04/26 05:00:24;;;;;;;15.73;5.05;;;6.60;99.90;;;;;;2075359;28;20276;-79
2023/04/26 05:01:33;;;;;;;10.45;4.47;;;6.80;99.90;;;;;;2072259;28;20128;-80
2023/04/26 05:02:38;;;;;;;10.55;4.47;;;7.00;99.90;;;;;;2072184;28;20176;-81
2023/04/26 05:03:41;;;;;;;11.27;4.72;;;7.30;99.90;;;;;;2066310;28;20598;-77
2023/04/26 05:04:42;;;;;;;13.85;4.68;;;7.50;99.90;;;;;;2069820;28;20373;-77
2023/04/26 05:05:43;;;;;;;10.75;4.35;;;7.70;99.90;;;;;;2059016;28;20606;-75
2023/04/26 05:06:43;;;;;;;11.98;4.50;;;7.80;99.90;;;;;;2067111;28;20535;-84
2023/04/26 05:07:44;;;;;;;9.55;4.55;;;8.00;99.90;;;;;;2085138;28;20327;-83
2023/04/26 05:08:48;;;;;;;16.20;4.70;;;8.00;99.90;;;;;;2082139;28;20053;-76
2023/04/26 05:09:50;;;;;;;16.08;4.32;;;8.10;99.90;;;;;;2075892;28;20255;-81
2023/04/26 05:10:52;;;;;;;15.07;4.38;;;8.10;99.90;;;;;;2081433;28;20025;-78
2023/04/26 05:11:52;;;;;;;10.88;4.25;;;8.30;99.90;;;;;;2078363;28;20017;-85
2023/04/26 05:12:54;;;;;;;10.15;4.20;;;8.40;99.90;;;;;;2064831;28;20034;-79
2023/04/26 05:13:55;;;;;;;12.32;4.28;;;8.60;99.90;;;;;;2059448;28;20030;-76
2023/04/26 05:14:56;;;;;;;8.00;3.85;;;8.60;99.90;;;;;;2066958;28;20037;-79
2023/04/26 05:15:56;;;;;;;10.80;4.35;;;8.90;99.90;;;;;;2081815;28;20037;-81
2023/04/26 05:16:57;;;;;;;11.45;4.25;;;8.90;99.90;;;;;;2086330;28;20044;-79
2023/04/26 05:17:58;;;;;;;12.15;4.60;;;8.90;99.90;;;;;;2081758;28;20571;-77
2023/04/26 05:18:59;;;;;;;11.93;3.75;;;8.90;99.90;;;;;;2075732;28;20053;-78
2023/04/26 05:20:02;;;;;;;12.60;3.97;;;8.90;99.90;;;;;;2065485;28;20029;-79
2023/04/26 05:21:03;;;;;;;9.25;4.10;;;9.00;99.90;;;;;;2066003;28;20057;-79